sensor_id;sensor_type;location;lat;lon;timestamp;temperature;humidity
24638;DHT22;12773;50.162;8.548;2023-07-29T00:01:17;20.90;99.90
24638;DHT22;12773;50.162;8.548;2023-07-29T00:04:05;20.80;99.90
24638;DHT22;12773;50.162;8.548;2023-07-29T00:06:52;20.70;99.90
24638;DHT22;12773;50.162;8.548;2023-07-29T00:09:40;20.70;99.90
24638;DHT22;12773;50.162;8.548;2023-07-29T00:12:27;20.70;99.90
24638;DHT22;12773;50.162;8.548;2023-07-29T00:15:15;20.70;99.90
24638;DHT22;12773;50.162;8.548;2023-07-29T00:18:02;20.60;99.90
24638;DHT22;12773;50.162;8.548;2023-07-29T00:20:49;20.50;99.90
24638;DHT22;12773;50.162;8.548;2023-07-29T00:23:36;20.50;99.90
24638;DHT22;12773;50.162;8.548;2023-07-29T00:26:23;20.40;99.90
24638;DHT22;12773;50.162;8.548;2023-07-29T00:29:12;20.40;99.90
24638;DHT22;12773;50.162;8.548;2023-07-29T00:31:59;20.50;99.90
24638;DHT22;12773;50.162;8.548;2023-07-29T00:34:46;20.60;99.90
24638;DHT22;12773;50.162;8.548;2023-07-29T00:37:34;20.60;99.90
24638;DHT22;12773;50.162;8.548;2023-07-29T00:40:22;20.80;99.90
24638;DHT22;12773;50.162;8.548;2023-07-29T00:43:09;20.60;99.90
24638;DHT22;12773;50.162;8.548;2023-07-29T00:45:57;20.60;99.90
24638;DHT22;12773;50.162;8.548;2023-07-29T00:48:45;20.50;99.90
24638;DHT22;12773;50.162;8.548;2023-07-29T00:51:33;20.60;99.90
24638;DHT22;12773;50.162;8.548;2023-07-29T00:54:20;20.50;99.90
24638;DHT22;12773;50.162;8.548;2023-07-29T00:57:09;20.60;99.90
24638;DHT22;12773;50.162;8.548;2023-07-29T00:59:57;20.60;99.90
24638;DHT22;12773;50.162;8.548;2023-07-29T01:02:45;20.60;99.90
24638;DHT22;12773;50.162;8.548;2023-07-29T01:05:40;20.70;99.90
24638;DHT22;12773;50.162;8.548;2023-07-29T01:08:31;20.50;99.90
24638;DHT22;12773;50.162;8.548;2023-07-29T01:11:38;20.50;99.90
24638;DHT22;12773;50.162;8.548;2023-07-29T01:14:46;20.50;99.90
24638;DHT22;12773;50.162;8.548;2023-07-29T01:17:36;20.60;99.90
24638;DHT22;12773;50.162;8.548;2023-07-29T01:20:25;20.70;99.90
24638;DHT22;12773;50.162;8.548;2023-07-29T01:23:12;20.60;99.90
24638;DHT22;12773;50.162;8.548;2023-07-29T01:26:01;20.70;99.90
24638;DHT22;12773;50.162;8.548;2023-07-29T01:28:48;20.60;99.90
24638;DHT22;12773;50.162;8.548;2023-07-29T01:31:39;20.60;99.90
24638;DHT22;12773;50.162;8.548;2023-07-29T01:34:38;20.60;99.90
24638;DHT22;12773;50.162;8.548;2023-07-29T01:37:22;20.80;99.90
24638;DHT22;12773;50.162;8.548;2023-07-29T01:40:10;20.90;99.90
24638;DHT22;12773;50.162;8.548;2023-07-29T01:42:57;21.00;99.90
24638;DHT22;12773;50.162;8.548;2023-07-29T01:45:45;21.00;99.90
24638;DHT22;12773;50.162;8.548;2023-07-29T01:48:33;21.00;99.90
24638;DHT22;12773;50.162;8.548;2023-07-29T01:51:20;21.00;99.90
24638;DHT22;12773;50.162;8.548;2023-07-29T01:54:07;21.00;99.90
24638;DHT22;12773;50.162;8.548;2023-07-29T01:56:55;20.90;99.90
24638;DHT22;12773;50.162;8.548;2023-07-29T01:59:42;20.80;99.90
24638;DHT22;12773;50.162;8.548;2023-07-29T02:02:29;20.80;99.90
24638;DHT22;12773;50.162;8.548;2023-07-29T02:05:17;20.90;99.90
24638;DHT22;12773;50.162;8.548;2023-07-29T02:08:05;20.90;99.90
24638;DHT22;12773;50.162;8.548;2023-07-29T02:10:52;20.90;99.90
24638;DHT22;12773;50.162;8.548;2023-07-29T02:13:39;20.90;99.90
24638;DHT22;12773;50.162;8.548;2023-07-29T02:16:26;20.90;99.90
24638;DHT22;12773;50.162;8.548;2023-07-29T02:19:14;20.90;99.90
24638;DHT22;12773;50.162;8.548;2023-07-29T02:22:01;20.90;99.90
24638;DHT22;12773;50.162;8.548;2023-07-29T02:24:48;20.90;99.90
24638;DHT22;12773;50.162;8.548;2023-07-29T02:27:36;20.90;99.90
24638;DHT22;12773;50.162;8.548;2023-07-29T02:30:23;20.90;99.90
24638;DHT22;12773;50.162;8.548;2023-07-29T02:33:11;21.00;99.90
24638;DHT22;12773;50.162;8.548;2023-07-29T02:35:58;21.00;99.90
24638;DHT22;12773;50.162;8.548;2023-07-29T02:38:45;21.00;99.90
24638;DHT22;12773;50.162;8.548;2023-07-29T02:41:33;21.00;99.90
24638;DHT22;12773;50.162;8.548;2023-07-29T02:44:21;20.90;99.90
24638;DHT22;12773;50.162;8.548;2023-07-29T02:47:08;20.80;99.90
24638;DHT22;12773;50.162;8.548;2023-07-29T02:49:55;20.70;99.90
24638;DHT22;12773;50.162;8.548;2023-07-29T02:52:43;20.70;99.90
24638;DHT22;12773;50.162;8.548;2023-07-29T02:55:31;20.60;99.90
24638;DHT22;12773;50.162;8.548;2023-07-29T02:58:18;20.60;99.90
24638;DHT22;12773;50.162;8.548;2023-07-29T03:01:06;20.50;99.90
24638;DHT22;12773;50.162;8.548;2023-07-29T03:03:53;20.40;99.90
24638;DHT22;12773;50.162;8.548;2023-07-29T03:06:41;20.40;99.90
24638;DHT22;12773;50.162;8.548;2023-07-29T03:09:29;20.40;99.90
24638;DHT22;12773;50.162;8.548;2023-07-29T03:12:16;20.40;99.90
24638;DHT22;12773;50.162;8.548;2023-07-29T03:15:04;20.50;99.90
24638;DHT22;12773;50.162;8.548;2023-07-29T03:17:52;20.60;99.90
24638;DHT22;12773;50.162;8.548;2023-07-29T03:20:39;20.60;99.90
24638;DHT22;12773;50.162;8.548;2023-07-29T03:23:28;20.70;99.90
24638;DHT22;12773;50.162;8.548;2023-07-29T03:26:16;20.60;99.90
24638;DHT22;12773;50.162;8.548;2023-07-29T03:29:03;20.60;99.90
24638;DHT22;12773;50.162;8.548;2023-07-29T03:31:51;20.60;99.90
24638;DHT22;12773;50.162;8.548;2023-07-29T03:34:38;20.70;99.90
24638;DHT22;12773;50.162;8.548;2023-07-29T03:37:26;20.60;99.90
24638;DHT22;12773;50.162;8.548;2023-07-29T03:40:13;20.50;99.90
24638;DHT22;12773;50.162;8.548;2023-07-29T03:43:01;20.40;99.90
24638;DHT22;12773;50.162;8.548;2023-07-29T03:45:48;20.30;99.90
24638;DHT22;12773;50.162;8.548;2023-07-29T03:48:36;20.30;99.90
24638;DHT22;12773;50.162;8.548;2023-07-29T03:51:23;20.30;99.90
24638;DHT22;12773;50.162;8.548;2023-07-29T03:54:11;20.30;99.90
24638;DHT22;12773;50.162;8.548;2023-07-29T03:56:58;20.40;99.90
24638;DHT22;12773;50.162;8.548;2023-07-29T03:59:45;20.50;99.90
24638;DHT22;12773;50.162;8.548;2023-07-29T04:02:33;20.50;99.90
24638;DHT22;12773;50.162;8.548;2023-07-29T04:05:22;20.30;99.90
24638;DHT22;12773;50.162;8.548;2023-07-29T04:08:09;20.30;99.90
24638;DHT22;12773;50.162;8.548;2023-07-29T04:10:57;20.20;99.90
24638;DHT22;12773;50.162;8.548;2023-07-29T04:13:44;20.20;99.90
24638;DHT22;12773;50.162;8.548;2023-07-29T04:16:32;20.30;99.90
24638;DHT22;12773;50.162;8.548;2023-07-29T04:19:20;20.20;99.90
24638;DHT22;12773;50.162;8.548;2023-07-29T04:22:08;20.30;99.90
24638;DHT22;12773;50.162;8.548;2023-07-29T04:25:06;20.30;99.90
24638;DHT22;12773;50.162;8.548;2023-07-29T04:27:54;20.20;99.90
24638;DHT22;12773;50.162;8.548;2023-07-29T04:30:43;20.20;99.90
24638;DHT22;12773;50.162;8.548;2023-07-29T04:33:30;20.30;99.90
24638;DHT22;12773;50.162;8.548;2023-07-29T04:36:19;20.20;99.90
24638;DHT22;12773;50.162;8.548;2023-07-29T04:39:06;20.30;99.90
24638;DHT22;12773;50.162;8.548;2023-07-29T04:41:54;20.30;99.90
24638;DHT22;12773;50.162;8.548;2023-07-29T04:44:41;20.30;99.90
24638;DHT22;12773;50.162;8.548;2023-07-29T04:47:31;20.30;99.90
24638;DHT22;12773;50.162;8.548;2023-07-29T04:50:18;20.40;99.90
24638;DHT22;12773;50.162;8.548;2023-07-29T04:53:06;20.40;99.90
24638;DHT22;12773;50.162;8.548;2023-07-29T04:55:53;20.30;99.90
24638;DHT22;12773;50.162;8.548;2023-07-29T04:58:41;20.30;99.90
24638;DHT22;12773;50.162;8.548;2023-07-29T05:01:28;20.40;99.90
24638;DHT22;12773;50.162;8.548;2023-07-29T05:04:16;20.30;99.90
24638;DHT22;12773;50.162;8.548;2023-07-29T05:07:03;20.10;99.90
24638;DHT22;12773;50.162;8.548;2023-07-29T05:09:51;20.10;99.90
24638;DHT22;12773;50.162;8.548;2023-07-29T05:12:38;20.20;99.90
24638;DHT22;12773;50.162;8.548;2023-07-29T05:15:26;20.30;99.90
24638;DHT22;12773;50.162;8.548;2023-07-29T05:18:14;20.20;99.90
24638;DHT22;12773;50.162;8.548;2023-07-29T05:21:01;20.10;99.90
24638;DHT22;12773;50.162;8.548;2023-07-29T05:23:48;20.00;99.90
24638;DHT22;12773;50.162;8.548;2023-07-29T05:26:35;20.10;99.90
24638;DHT22;12773;50.162;8.548;2023-07-29T05:29:23;20.20;99.90
24638;DHT22;12773;50.162;8.548;2023-07-29T05:32:10;20.40;99.90
24638;DHT22;12773;50.162;8.548;2023-07-29T05:34:58;20.40;99.90
24638;DHT22;12773;50.162;8.548;2023-07-29T05:37:45;20.40;99.90
24638;DHT22;12773;50.162;8.548;2023-07-29T05:40:32;20.40;99.90
24638;DHT22;12773;50.162;8.548;2023-07-29T05:43:19;20.30;99.90
24638;DHT22;12773;50.162;8.548;2023-07-29T05:46:07;20.30;99.90
24638;DHT22;12773;50.162;8.548;2023-07-29T05:48:55;20.20;99.90
24638;DHT22;12773;50.162;8.548;2023-07-29T05:51:42;20.20;99.90
24638;DHT22;12773;50.162;8.548;2023-07-29T05:54:29;20.30;99.90
24638;DHT22;12773;50.162;8.548;2023-07-29T05:57:17;20.30;99.90
24638;DHT22;12773;50.162;8.548;2023-07-29T06:00:04;20.40;99.90
24638;DHT22;12773;50.162;8.548;2023-07-29T06:02:52;20.40;99.90
24638;DHT22;12773;50.162;8.548;2023-07-29T06:05:40;20.70;99.90
24638;DHT22;12773;50.162;8.548;2023-07-29T06:08:27;20.80;99.90
24638;DHT22;12773;50.162;8.548;2023-07-29T06:11:15;20.70;99.90
24638;DHT22;12773;50.162;8.548;2023-07-29T06:14:02;20.70;99.90
24638;DHT22;12773;50.162;8.548;2023-07-29T06:16:50;20.70;99.90
24638;DHT22;12773;50.162;8.548;2023-07-29T06:19:37;20.70;99.90
24638;DHT22;12773;50.162;8.548;2023-07-29T06:22:24;20.60;99.90
24638;DHT22;12773;50.162;8.548;2023-07-29T06:25:12;20.50;99.90
24638;DHT22;12773;50.162;8.548;2023-07-29T06:27:59;20.50;99.90
24638;DHT22;12773;50.162;8.548;2023-07-29T06:30:46;20.50;99.90
24638;DHT22;12773;50.162;8.548;2023-07-29T06:33:34;20.30;99.90
24638;DHT22;12773;50.162;8.548;2023-07-29T06:36:21;20.30;99.90
24638;DHT22;12773;50.162;8.548;2023-07-29T06:39:09;20.30;99.90
24638;DHT22;12773;50.162;8.548;2023-07-29T06:41:56;20.30;99.90
24638;DHT22;12773;50.162;8.548;2023-07-29T06:44:44;20.20;99.90
24638;DHT22;12773;50.162;8.548;2023-07-29T06:47:32;20.20;99.90
24638;DHT22;12773;50.162;8.548;2023-07-29T06:50:20;20.20;99.90
24638;DHT22;12773;50.162;8.548;2023-07-29T06:53:07;20.30;99.90
24638;DHT22;12773;50.162;8.548;2023-07-29T06:55:54;20.20;99.90
24638;DHT22;12773;50.162;8.548;2023-07-29T06:58:42;20.20;99.90
24638;DHT22;12773;50.162;8.548;2023-07-29T07:01:29;20.20;99.90
24638;DHT22;12773;50.162;8.548;2023-07-29T07:04:16;20.30;99.90
24638;DHT22;12773;50.162;8.548;2023-07-29T07:07:04;20.30;99.90
24638;DHT22;12773;50.162;8.548;2023-07-29T07:09:51;20.30;99.90
24638;DHT22;12773;50.162;8.548;2023-07-29T07:12:40;20.40;99.90
24638;DHT22;12773;50.162;8.548;2023-07-29T07:15:28;20.60;99.90
24638;DHT22;12773;50.162;8.548;2023-07-29T07:18:15;20.80;99.90
24638;DHT22;12773;50.162;8.548;2023-07-29T07:21:02;20.90;99.90
24638;DHT22;12773;50.162;8.548;2023-07-29T07:23:50;20.80;99.90
24638;DHT22;12773;50.162;8.548;2023-07-29T07:26:37;20.90;99.90
24638;DHT22;12773;50.162;8.548;2023-07-29T07:29:25;20.90;99.90
24638;DHT22;12773;50.162;8.548;2023-07-29T07:32:13;20.90;99.90
24638;DHT22;12773;50.162;8.548;2023-07-29T07:35:00;20.90;99.90
24638;DHT22;12773;50.162;8.548;2023-07-29T07:37:47;20.90;99.90
24638;DHT22;12773;50.162;8.548;2023-07-29T07:40:35;20.90;99.90
24638;DHT22;12773;50.162;8.548;2023-07-29T07:43:23;21.10;99.90
24638;DHT22;12773;50.162;8.548;2023-07-29T07:46:10;21.10;99.90
24638;DHT22;12773;50.162;8.548;2023-07-29T07:48:58;21.10;99.90
24638;DHT22;12773;50.162;8.548;2023-07-29T07:51:45;20.90;99.90
24638;DHT22;12773;50.162;8.548;2023-07-29T07:54:32;21.00;99.90
24638;DHT22;12773;50.162;8.548;2023-07-29T07:57:25;21.10;99.90
24638;DHT22;12773;50.162;8.548;2023-07-29T08:00:09;21.20;99.90
24638;DHT22;12773;50.162;8.548;2023-07-29T08:02:57;21.30;99.90
24638;DHT22;12773;50.162;8.548;2023-07-29T08:05:44;21.40;99.90
24638;DHT22;12773;50.162;8.548;2023-07-29T08:08:32;21.30;99.90
24638;DHT22;12773;50.162;8.548;2023-07-29T08:11:19;21.30;99.90
24638;DHT22;12773;50.162;8.548;2023-07-29T08:14:07;21.50;99.90
24638;DHT22;12773;50.162;8.548;2023-07-29T08:16:54;21.50;99.90
24638;DHT22;12773;50.162;8.548;2023-07-29T08:19:41;21.60;99.90
24638;DHT22;12773;50.162;8.548;2023-07-29T08:22:29;21.60;99.90
24638;DHT22;12773;50.162;8.548;2023-07-29T08:25:16;21.60;99.90
24638;DHT22;12773;50.162;8.548;2023-07-29T08:28:03;21.80;99.90
24638;DHT22;12773;50.162;8.548;2023-07-29T08:30:51;22.00;99.90
24638;DHT22;12773;50.162;8.548;2023-07-29T08:33:39;22.40;99.90
24638;DHT22;12773;50.162;8.548;2023-07-29T08:36:26;22.50;99.90
24638;DHT22;12773;50.162;8.548;2023-07-29T08:39:14;22.70;99.90
24638;DHT22;12773;50.162;8.548;2023-07-29T08:42:04;22.50;99.90
24638;DHT22;12773;50.162;8.548;2023-07-29T08:44:54;22.60;99.90
24638;DHT22;12773;50.162;8.548;2023-07-29T08:47:43;22.50;99.90
24638;DHT22;12773;50.162;8.548;2023-07-29T08:50:32;22.80;99.90
24638;DHT22;12773;50.162;8.548;2023-07-29T08:53:20;23.00;99.90
24638;DHT22;12773;50.162;8.548;2023-07-29T08:56:08;23.10;99.90
24638;DHT22;12773;50.162;8.548;2023-07-29T08:58:55;23.00;99.90
24638;DHT22;12773;50.162;8.548;2023-07-29T09:01:43;22.70;99.90
24638;DHT22;12773;50.162;8.548;2023-07-29T09:04:31;22.70;99.90
24638;DHT22;12773;50.162;8.548;2023-07-29T09:07:19;22.70;99.90
24638;DHT22;12773;50.162;8.548;2023-07-29T09:10:13;22.90;99.90
24638;DHT22;12773;50.162;8.548;2023-07-29T09:13:01;22.90;99.90
24638;DHT22;12773;50.162;8.548;2023-07-29T09:15:49;23.00;99.90
24638;DHT22;12773;50.162;8.548;2023-07-29T09:18:36;23.00;99.90
24638;DHT22;12773;50.162;8.548;2023-07-29T09:21:24;23.30;99.90
24638;DHT22;12773;50.162;8.548;2023-07-29T09:24:17;23.30;99.90
24638;DHT22;12773;50.162;8.548;2023-07-29T09:27:05;23.70;99.90
24638;DHT22;12773;50.162;8.548;2023-07-29T09:29:54;23.60;99.90
24638;DHT22;12773;50.162;8.548;2023-07-29T09:32:41;23.60;99.90
24638;DHT22;12773;50.162;8.548;2023-07-29T09:35:32;23.70;99.90
24638;DHT22;12773;50.162;8.548;2023-07-29T09:38:26;24.00;99.90
24638;DHT22;12773;50.162;8.548;2023-07-29T09:41:12;24.10;99.90
24638;DHT22;12773;50.162;8.548;2023-07-29T09:44:03;23.90;99.90
24638;DHT22;12773;50.162;8.548;2023-07-29T09:46:50;23.70;99.90
24638;DHT22;12773;50.162;8.548;2023-07-29T09:49:37;23.60;99.90
24638;DHT22;12773;50.162;8.548;2023-07-29T09:52:24;23.70;99.90
24638;DHT22;12773;50.162;8.548;2023-07-29T09:55:20;23.70;99.90
24638;DHT22;12773;50.162;8.548;2023-07-29T09:58:08;23.90;99.90
24638;DHT22;12773;50.162;8.548;2023-07-29T10:00:55;24.00;99.90
24638;DHT22;12773;50.162;8.548;2023-07-29T10:03:44;24.10;99.90
24638;DHT22;12773;50.162;8.548;2023-07-29T10:06:34;24.10;99.90
24638;DHT22;12773;50.162;8.548;2023-07-29T10:09:22;24.10;99.90
24638;DHT22;12773;50.162;8.548;2023-07-29T10:12:10;24.10;99.90
24638;DHT22;12773;50.162;8.548;2023-07-29T10:15:05;24.40;99.90
24638;DHT22;12773;50.162;8.548;2023-07-29T10:17:53;24.50;99.90
24638;DHT22;12773;50.162;8.548;2023-07-29T10:20:41;24.60;99.90
24638;DHT22;12773;50.162;8.548;2023-07-29T10:23:37;24.70;99.90
24638;DHT22;12773;50.162;8.548;2023-07-29T10:26:20;24.80;99.90
24638;DHT22;12773;50.162;8.548;2023-07-29T10:29:11;24.80;99.90
24638;DHT22;12773;50.162;8.548;2023-07-29T10:32:01;24.90;99.90
24638;DHT22;12773;50.162;8.548;2023-07-29T10:34:51;25.00;99.90
24638;DHT22;12773;50.162;8.548;2023-07-29T10:37:38;25.10;99.90
24638;DHT22;12773;50.162;8.548;2023-07-29T10:40:26;24.90;99.90
24638;DHT22;12773;50.162;8.548;2023-07-29T10:43:24;24.70;99.90
24638;DHT22;12773;50.162;8.548;2023-07-29T10:46:22;24.80;99.90
24638;DHT22;12773;50.162;8.548;2023-07-29T10:49:09;24.80;99.90
24638;DHT22;12773;50.162;8.548;2023-07-29T10:51:57;24.70;99.90
24638;DHT22;12773;50.162;8.548;2023-07-29T10:54:46;24.50;99.90
24638;DHT22;12773;50.162;8.548;2023-07-29T10:57:36;24.40;99.90
24638;DHT22;12773;50.162;8.548;2023-07-29T11:00:25;24.30;99.90
24638;DHT22;12773;50.162;8.548;2023-07-29T11:03:14;24.10;99.90
24638;DHT22;12773;50.162;8.548;2023-07-29T11:06:04;24.00;99.90
24638;DHT22;12773;50.162;8.548;2023-07-29T11:08:51;24.00;99.90
24638;DHT22;12773;50.162;8.548;2023-07-29T11:11:39;24.40;99.90
24638;DHT22;12773;50.162;8.548;2023-07-29T11:14:26;24.70;99.90
24638;DHT22;12773;50.162;8.548;2023-07-29T11:17:14;24.90;99.90
24638;DHT22;12773;50.162;8.548;2023-07-29T11:20:03;25.30;99.90
24638;DHT22;12773;50.162;8.548;2023-07-29T11:22:52;25.70;99.90
24638;DHT22;12773;50.162;8.548;2023-07-29T11:25:40;26.10;99.90
24638;DHT22;12773;50.162;8.548;2023-07-29T11:28:28;26.30;99.90
24638;DHT22;12773;50.162;8.548;2023-07-29T11:31:16;26.60;99.90
24638;DHT22;12773;50.162;8.548;2023-07-29T11:34:09;26.70;99.90
24638;DHT22;12773;50.162;8.548;2023-07-29T11:36:56;26.80;99.90
24638;DHT22;12773;50.162;8.548;2023-07-29T11:39:44;27.20;99.90
24638;DHT22;12773;50.162;8.548;2023-07-29T11:42:33;27.20;99.90
24638;DHT22;12773;50.162;8.548;2023-07-29T11:45:22;27.30;99.90
24638;DHT22;12773;50.162;8.548;2023-07-29T11:48:11;27.50;99.90
24638;DHT22;12773;50.162;8.548;2023-07-29T11:50:58;27.20;99.90
24638;DHT22;12773;50.162;8.548;2023-07-29T11:53:45;27.00;99.90
24638;DHT22;12773;50.162;8.548;2023-07-29T11:56:32;27.00;99.90
24638;DHT22;12773;50.162;8.548;2023-07-29T11:59:20;27.40;99.90
24638;DHT22;12773;50.162;8.548;2023-07-29T12:02:13;27.60;99.90
24638;DHT22;12773;50.162;8.548;2023-07-29T12:05:03;27.70;99.90
24638;DHT22;12773;50.162;8.548;2023-07-29T12:07:51;27.60;99.90
24638;DHT22;12773;50.162;8.548;2023-07-29T12:10:39;27.30;99.90
24638;DHT22;12773;50.162;8.548;2023-07-29T12:13:26;27.30;99.90
24638;DHT22;12773;50.162;8.548;2023-07-29T12:16:17;27.10;99.90
24638;DHT22;12773;50.162;8.548;2023-07-29T12:19:05;27.00;99.90
24638;DHT22;12773;50.162;8.548;2023-07-29T12:21:53;26.80;99.90
24638;DHT22;12773;50.162;8.548;2023-07-29T12:24:40;26.60;99.90
24638;DHT22;12773;50.162;8.548;2023-07-29T12:27:30;26.60;99.90
24638;DHT22;12773;50.162;8.548;2023-07-29T12:30:22;26.60;99.90
24638;DHT22;12773;50.162;8.548;2023-07-29T12:33:09;26.80;99.90
24638;DHT22;12773;50.162;8.548;2023-07-29T12:35:56;27.20;99.90
24638;DHT22;12773;50.162;8.548;2023-07-29T12:38:44;27.60;99.90
24638;DHT22;12773;50.162;8.548;2023-07-29T12:41:31;27.80;99.90
24638;DHT22;12773;50.162;8.548;2023-07-29T12:44:19;27.90;99.90
24638;DHT22;12773;50.162;8.548;2023-07-29T12:47:06;27.50;99.90
24638;DHT22;12773;50.162;8.548;2023-07-29T12:49:55;27.00;99.90
24638;DHT22;12773;50.162;8.548;2023-07-29T12:52:43;26.50;99.90
24638;DHT22;12773;50.162;8.548;2023-07-29T12:55:30;26.60;99.90
24638;DHT22;12773;50.162;8.548;2023-07-29T12:58:17;26.80;99.90
24638;DHT22;12773;50.162;8.548;2023-07-29T13:01:05;26.70;99.90
24638;DHT22;12773;50.162;8.548;2023-07-29T13:03:52;26.60;99.90
24638;DHT22;12773;50.162;8.548;2023-07-29T13:06:40;26.70;99.90
24638;DHT22;12773;50.162;8.548;2023-07-29T13:09:27;26.50;99.90
24638;DHT22;12773;50.162;8.548;2023-07-29T13:12:14;26.40;99.90
24638;DHT22;12773;50.162;8.548;2023-07-29T13:15:02;26.40;99.90
24638;DHT22;12773;50.162;8.548;2023-07-29T13:17:49;26.60;99.90
24638;DHT22;12773;50.162;8.548;2023-07-29T13:20:37;26.80;99.90
24638;DHT22;12773;50.162;8.548;2023-07-29T13:23:24;26.90;99.90
24638;DHT22;12773;50.162;8.548;2023-07-29T13:26:11;27.10;99.90
24638;DHT22;12773;50.162;8.548;2023-07-29T13:28:59;27.20;99.90
24638;DHT22;12773;50.162;8.548;2023-07-29T13:31:46;27.30;99.90
24638;DHT22;12773;50.162;8.548;2023-07-29T13:34:33;27.20;99.90
24638;DHT22;12773;50.162;8.548;2023-07-29T13:37:21;27.40;99.90
24638;DHT22;12773;50.162;8.548;2023-07-29T13:40:09;27.50;99.90
24638;DHT22;12773;50.162;8.548;2023-07-29T13:42:56;27.60;99.90
24638;DHT22;12773;50.162;8.548;2023-07-29T13:45:43;28.00;99.90
24638;DHT22;12773;50.162;8.548;2023-07-29T13:48:31;28.20;99.90
24638;DHT22;12773;50.162;8.548;2023-07-29T13:51:19;28.30;99.90
24638;DHT22;12773;50.162;8.548;2023-07-29T13:54:07;28.60;99.90
24638;DHT22;12773;50.162;8.548;2023-07-29T13:56:54;28.60;99.90
24638;DHT22;12773;50.162;8.548;2023-07-29T13:59:41;28.90;99.90
24638;DHT22;12773;50.162;8.548;2023-07-29T14:02:29;28.90;99.90
24638;DHT22;12773;50.162;8.548;2023-07-29T14:05:17;28.80;99.90
24638;DHT22;12773;50.162;8.548;2023-07-29T14:08:05;29.20;99.90
24638;DHT22;12773;50.162;8.548;2023-07-29T14:10:52;29.40;99.90
24638;DHT22;12773;50.162;8.548;2023-07-29T14:13:39;29.20;99.90
24638;DHT22;12773;50.162;8.548;2023-07-29T14:16:27;29.20;99.00
24638;DHT22;12773;50.162;8.548;2023-07-29T14:19:14;28.90;99.30
24638;DHT22;12773;50.162;8.548;2023-07-29T14:22:02;28.90;99.90
24638;DHT22;12773;50.162;8.548;2023-07-29T14:24:49;29.00;99.00
24638;DHT22;12773;50.162;8.548;2023-07-29T14:27:36;29.00;99.00
24638;DHT22;12773;50.162;8.548;2023-07-29T14:30:24;29.10;99.10
24638;DHT22;12773;50.162;8.548;2023-07-29T14:33:11;29.20;98.70
24638;DHT22;12773;50.162;8.548;2023-07-29T14:36:00;29.10;97.30
24638;DHT22;12773;50.162;8.548;2023-07-29T14:38:49;29.00;97.10
24638;DHT22;12773;50.162;8.548;2023-07-29T14:41:36;28.70;96.90
24638;DHT22;12773;50.162;8.548;2023-07-29T14:44:23;28.70;96.20
24638;DHT22;12773;50.162;8.548;2023-07-29T14:47:11;28.70;95.80
24638;DHT22;12773;50.162;8.548;2023-07-29T14:49:58;28.60;95.90
24638;DHT22;12773;50.162;8.548;2023-07-29T14:52:45;28.40;95.40
24638;DHT22;12773;50.162;8.548;2023-07-29T14:55:33;28.50;95.40
24638;DHT22;12773;50.162;8.548;2023-07-29T14:58:21;28.50;95.50
24638;DHT22;12773;50.162;8.548;2023-07-29T15:01:09;28.70;95.30
24638;DHT22;12773;50.162;8.548;2023-07-29T15:03:56;28.70;95.40
24638;DHT22;12773;50.162;8.548;2023-07-29T15:06:44;28.80;94.50
24638;DHT22;12773;50.162;8.548;2023-07-29T15:09:31;29.00;94.70
24638;DHT22;12773;50.162;8.548;2023-07-29T15:12:18;29.30;93.60
24638;DHT22;12773;50.162;8.548;2023-07-29T15:15:09;29.50;94.20
24638;DHT22;12773;50.162;8.548;2023-07-29T15:17:56;29.30;93.30
24638;DHT22;12773;50.162;8.548;2023-07-29T15:20:44;29.20;93.50
24638;DHT22;12773;50.162;8.548;2023-07-29T15:23:31;29.20;93.40
24638;DHT22;12773;50.162;8.548;2023-07-29T15:26:19;28.70;93.70
24638;DHT22;12773;50.162;8.548;2023-07-29T15:29:06;28.60;93.10
24638;DHT22;12773;50.162;8.548;2023-07-29T15:31:54;28.50;93.90
24638;DHT22;12773;50.162;8.548;2023-07-29T15:34:42;28.70;93.60
24638;DHT22;12773;50.162;8.548;2023-07-29T15:37:29;29.20;94.40
24638;DHT22;12773;50.162;8.548;2023-07-29T15:40:16;29.10;92.70
24638;DHT22;12773;50.162;8.548;2023-07-29T15:43:03;28.90;92.40
24638;DHT22;12773;50.162;8.548;2023-07-29T15:45:51;28.40;91.60
24638;DHT22;12773;50.162;8.548;2023-07-29T15:48:39;28.70;92.50
24638;DHT22;12773;50.162;8.548;2023-07-29T15:51:26;28.60;92.20
24638;DHT22;12773;50.162;8.548;2023-07-29T15:54:17;28.40;91.80
24638;DHT22;12773;50.162;8.548;2023-07-29T15:57:05;28.20;92.40
24638;DHT22;12773;50.162;8.548;2023-07-29T15:59:52;28.10;91.60
24638;DHT22;12773;50.162;8.548;2023-07-29T16:02:40;28.10;92.80
24638;DHT22;12773;50.162;8.548;2023-07-29T16:05:27;28.60;93.00
24638;DHT22;12773;50.162;8.548;2023-07-29T16:08:15;28.70;91.40
24638;DHT22;12773;50.162;8.548;2023-07-29T16:11:02;28.40;90.80
24638;DHT22;12773;50.162;8.548;2023-07-29T16:13:50;28.20;90.90
24638;DHT22;12773;50.162;8.548;2023-07-29T16:16:37;28.20;90.80
24638;DHT22;12773;50.162;8.548;2023-07-29T16:19:27;28.00;90.30
24638;DHT22;12773;50.162;8.548;2023-07-29T16:22:18;28.00;90.90
24638;DHT22;12773;50.162;8.548;2023-07-29T16:25:07;27.90;91.60
24638;DHT22;12773;50.162;8.548;2023-07-29T16:27:54;27.90;91.90
24638;DHT22;12773;50.162;8.548;2023-07-29T16:30:43;27.90;91.10
24638;DHT22;12773;50.162;8.548;2023-07-29T16:33:30;28.10;92.20
24638;DHT22;12773;50.162;8.548;2023-07-29T16:36:18;28.20;92.60
24638;DHT22;12773;50.162;8.548;2023-07-29T16:39:05;28.00;92.30
24638;DHT22;12773;50.162;8.548;2023-07-29T16:41:53;27.90;92.70
24638;DHT22;12773;50.162;8.548;2023-07-29T16:44:42;27.70;93.10
24638;DHT22;12773;50.162;8.548;2023-07-29T16:47:29;27.30;93.40
24638;DHT22;12773;50.162;8.548;2023-07-29T16:50:17;27.50;94.00
24638;DHT22;12773;50.162;8.548;2023-07-29T16:53:04;28.20;94.50
24638;DHT22;12773;50.162;8.548;2023-07-29T16:55:52;28.60;92.50
24638;DHT22;12773;50.162;8.548;2023-07-29T16:58:39;28.80;92.70
24638;DHT22;12773;50.162;8.548;2023-07-29T17:01:26;28.90;91.70
24638;DHT22;12773;50.162;8.548;2023-07-29T17:04:14;28.80;92.80
24638;DHT22;12773;50.162;8.548;2023-07-29T17:07:01;28.30;91.20
24638;DHT22;12773;50.162;8.548;2023-07-29T17:09:49;28.10;92.40
24638;DHT22;12773;50.162;8.548;2023-07-29T17:12:38;27.90;92.60
24638;DHT22;12773;50.162;8.548;2023-07-29T17:15:25;27.70;93.10
24638;DHT22;12773;50.162;8.548;2023-07-29T17:18:12;27.50;93.70
24638;DHT22;12773;50.162;8.548;2023-07-29T17:21:00;27.40;94.10
24638;DHT22;12773;50.162;8.548;2023-07-29T17:23:48;27.30;93.50
24638;DHT22;12773;50.162;8.548;2023-07-29T17:26:35;27.30;94.60
24638;DHT22;12773;50.162;8.548;2023-07-29T17:29:24;27.30;94.40
24638;DHT22;12773;50.162;8.548;2023-07-29T17:32:12;27.20;94.50
24638;DHT22;12773;50.162;8.548;2023-07-29T17:34:59;26.80;94.60
24638;DHT22;12773;50.162;8.548;2023-07-29T17:37:47;26.80;94.80
24638;DHT22;12773;50.162;8.548;2023-07-29T17:40:34;26.90;95.00